sensor_id;sensor_type;location;lat;lon;timestamp;temperature;humidity
20349;DHT22;10332;50.208;18.988;2023-05-07T00:02:10;12.10;1.00
20349;DHT22;10332;50.208;18.988;2023-05-07T00:04:38;12.10;1.00
20349;DHT22;10332;50.208;18.988;2023-05-07T00:07:05;12.10;1.00
20349;DHT22;10332;50.208;18.988;2023-05-07T00:09:33;12.10;1.00
20349;DHT22;10332;50.208;18.988;2023-05-07T00:12:00;12.20;1.00
20349;DHT22;10332;50.208;18.988;2023-05-07T00:14:28;12.20;1.00
20349;DHT22;10332;50.208;18.988;2023-05-07T00:16:55;12.20;1.00
20349;DHT22;10332;50.208;18.988;2023-05-07T00:19:23;12.20;1.00
20349;DHT22;10332;50.208;18.988;2023-05-07T00:21:50;12.10;1.00
20349;DHT22;10332;50.208;18.988;2023-05-07T00:24:20;12.00;1.00
20349;DHT22;10332;50.208;18.988;2023-05-07T00:26:47;11.90;1.00
20349;DHT22;10332;50.208;18.988;2023-05-07T00:29:15;11.80;1.00
20349;DHT22;10332;50.208;18.988;2023-05-07T00:31:42;11.80;1.00
20349;DHT22;10332;50.208;18.988;2023-05-07T00:34:10;11.80;1.00
20349;DHT22;10332;50.208;18.988;2023-05-07T00:36:37;11.90;1.00
20349;DHT22;10332;50.208;18.988;2023-05-07T00:39:05;12.00;1.00
20349;DHT22;10332;50.208;18.988;2023-05-07T00:41:32;12.00;1.00
20349;DHT22;10332;50.208;18.988;2023-05-07T00:44:00;12.00;1.00
20349;DHT22;10332;50.208;18.988;2023-05-07T00:46:30;12.10;1.00
20349;DHT22;10332;50.208;18.988;2023-05-07T00:49:00;12.10;1.00
20349;DHT22;10332;50.208;18.988;2023-05-07T00:51:30;12.10;1.00
20349;DHT22;10332;50.208;18.988;2023-05-07T00:53:58;12.10;1.00
20349;DHT22;10332;50.208;18.988;2023-05-07T00:56:26;12.10;1.00
20349;DHT22;10332;50.208;18.988;2023-05-07T00:58:55;12.10;1.00
20349;DHT22;10332;50.208;18.988;2023-05-07T01:01:22;12.10;1.00
20349;DHT22;10332;50.208;18.988;2023-05-07T01:03:50;12.20;1.00
20349;DHT22;10332;50.208;18.988;2023-05-07T01:06:17;12.10;1.00
20349;DHT22;10332;50.208;18.988;2023-05-07T01:08:49;12.10;1.00
20349;DHT22;10332;50.208;18.988;2023-05-07T01:11:17;12.10;1.00
20349;DHT22;10332;50.208;18.988;2023-05-07T01:13:47;12.10;1.00
20349;DHT22;10332;50.208;18.988;2023-05-07T01:16:17;12.20;1.00
20349;DHT22;10332;50.208;18.988;2023-05-07T01:18:44;12.20;1.00
20349;DHT22;10332;50.208;18.988;2023-05-07T01:21:16;12.20;1.00
20349;DHT22;10332;50.208;18.988;2023-05-07T01:23:45;12.20;1.00
20349;DHT22;10332;50.208;18.988;2023-05-07T01:26:14;12.20;1.00
20349;DHT22;10332;50.208;18.988;2023-05-07T01:28:41;12.30;1.00
20349;DHT22;10332;50.208;18.988;2023-05-07T01:31:09;12.30;1.00
20349;DHT22;10332;50.208;18.988;2023-05-07T01:33:38;12.20;1.00
20349;DHT22;10332;50.208;18.988;2023-05-07T01:36:08;12.20;1.00
20349;DHT22;10332;50.208;18.988;2023-05-07T01:38:38;12.20;1.00
20349;DHT22;10332;50.208;18.988;2023-05-07T01:41:08;12.10;1.00
20349;DHT22;10332;50.208;18.988;2023-05-07T01:43:36;12.10;1.00
20349;DHT22;10332;50.208;18.988;2023-05-07T01:46:03;12.20;1.00
20349;DHT22;10332;50.208;18.988;2023-05-07T01:48:32;12.20;1.00
20349;DHT22;10332;50.208;18.988;2023-05-07T01:51:02;12.20;1.00
20349;DHT22;10332;50.208;18.988;2023-05-07T01:53:38;12.30;1.00
20349;DHT22;10332;50.208;18.988;2023-05-07T01:56:07;12.30;1.00
20349;DHT22;10332;50.208;18.988;2023-05-07T01:58:35;12.30;1.00
20349;DHT22;10332;50.208;18.988;2023-05-07T02:01:02;12.30;1.00
20349;DHT22;10332;50.208;18.988;2023-05-07T02:03:30;12.30;1.00
20349;DHT22;10332;50.208;18.988;2023-05-07T02:05:57;12.30;1.00
20349;DHT22;10332;50.208;18.988;2023-05-07T02:08:25;12.40;1.00
20349;DHT22;10332;50.208;18.988;2023-05-07T02:10:52;12.30;1.00
20349;DHT22;10332;50.208;18.988;2023-05-07T02:13:21;12.30;1.00
20349;DHT22;10332;50.208;18.988;2023-05-07T02:15:49;12.30;1.00
20349;DHT22;10332;50.208;18.988;2023-05-07T02:18:17;12.30;1.00
20349;DHT22;10332;50.208;18.988;2023-05-07T02:20:45;12.30;1.00
20349;DHT22;10332;50.208;18.988;2023-05-07T02:23:12;12.40;1.00
20349;DHT22;10332;50.208;18.988;2023-05-07T02:25:39;12.40;1.00
20349;DHT22;10332;50.208;18.988;2023-05-07T02:28:07;12.30;1.00
20349;DHT22;10332;50.208;18.988;2023-05-07T02:30:35;12.30;1.00
20349;DHT22;10332;50.208;18.988;2023-05-07T02:33:03;12.30;1.00
20349;DHT22;10332;50.208;18.988;2023-05-07T02:35:31;12.20;1.00
20349;DHT22;10332;50.208;18.988;2023-05-07T02:37:59;12.20;1.00
20349;DHT22;10332;50.208;18.988;2023-05-07T02:40:26;12.20;1.00
20349;DHT22;10332;50.208;18.988;2023-05-07T02:42:53;12.20;1.00
20349;DHT22;10332;50.208;18.988;2023-05-07T02:45:21;12.20;1.00
20349;DHT22;10332;50.208;18.988;2023-05-07T02:47:48;12.20;1.00
20349;DHT22;10332;50.208;18.988;2023-05-07T02:50:16;12.20;1.00
20349;DHT22;10332;50.208;18.988;2023-05-07T02:52:43;12.20;1.00
20349;DHT22;10332;50.208;18.988;2023-05-07T02:55:11;12.20;1.00
20349;DHT22;10332;50.208;18.988;2023-05-07T02:57:38;12.20;1.00
20349;DHT22;10332;50.208;18.988;2023-05-07T03:00:18;12.10;1.00
20349;DHT22;10332;50.208;18.988;2023-05-07T03:02:47;12.00;1.00
20349;DHT22;10332;50.208;18.988;2023-05-07T03:05:14;11.90;1.00
20349;DHT22;10332;50.208;18.988;2023-05-07T03:07:41;11.70;1.00
20349;DHT22;10332;50.208;18.988;2023-05-07T03:10:13;11.60;1.00
20349;DHT22;10332;50.208;18.988;2023-05-07T03:12:40;11.50;1.00
20349;DHT22;10332;50.208;18.988;2023-05-07T03:15:08;11.40;1.00
20349;DHT22;10332;50.208;18.988;2023-05-07T03:17:37;11.40;1.00
20349;DHT22;10332;50.208;18.988;2023-05-07T03:20:05;11.30;1.00
20349;DHT22;10332;50.208;18.988;2023-05-07T03:22:34;11.30;1.00
20349;DHT22;10332;50.208;18.988;2023-05-07T03:25:01;11.30;1.00
20349;DHT22;10332;50.208;18.988;2023-05-07T03:27:29;11.30;1.00
20349;DHT22;10332;50.208;18.988;2023-05-07T03:29:57;11.20;1.00
20349;DHT22;10332;50.208;18.988;2023-05-07T03:32:24;11.20;1.00
20349;DHT22;10332;50.208;18.988;2023-05-07T03:34:52;11.20;1.00
20349;DHT22;10332;50.208;18.988;2023-05-07T03:37:19;11.20;1.00
20349;DHT22;10332;50.208;18.988;2023-05-07T03:39:48;11.20;1.00
20349;DHT22;10332;50.208;18.988;2023-05-07T03:42:16;11.20;1.00
20349;DHT22;10332;50.208;18.988;2023-05-07T03:44:43;11.20;1.00
20349;DHT22;10332;50.208;18.988;2023-05-07T03:47:10;11.20;1.00
20349;DHT22;10332;50.208;18.988;2023-05-07T03:49:38;11.30;1.00
20349;DHT22;10332;50.208;18.988;2023-05-07T03:52:06;11.30;1.00
20349;DHT22;10332;50.208;18.988;2023-05-07T03:54:33;11.30;1.00
20349;DHT22;10332;50.208;18.988;2023-05-07T03:57:01;11.30;1.00
20349;DHT22;10332;50.208;18.988;2023-05-07T03:59:28;11.40;1.00
20349;DHT22;10332;50.208;18.988;2023-05-07T04:01:56;11.50;1.00
20349;DHT22;10332;50.208;18.988;2023-05-07T04:04:23;11.50;1.00
20349;DHT22;10332;50.208;18.988;2023-05-07T04:06:51;11.50;1.00
20349;DHT22;10332;50.208;18.988;2023-05-07T04:09:18;11.40;1.00
20349;DHT22;10332;50.208;18.988;2023-05-07T04:11:46;11.30;1.00
20349;DHT22;10332;50.208;18.988;2023-05-07T04:14:13;11.20;1.00
20349;DHT22;10332;50.208;18.988;2023-05-07T04:16:41;11.10;1.00
20349;DHT22;10332;50.208;18.988;2023-05-07T04:19:08;11.00;1.00
20349;DHT22;10332;50.208;18.988;2023-05-07T04:21:35;10.90;1.00
20349;DHT22;10332;50.208;18.988;2023-05-07T04:24:03;10.80;1.00
20349;DHT22;10332;50.208;18.988;2023-05-07T04:26:31;10.80;1.00
20349;DHT22;10332;50.208;18.988;2023-05-07T04:28:58;10.80;1.00
20349;DHT22;10332;50.208;18.988;2023-05-07T04:31:26;10.80;1.00
20349;DHT22;10332;50.208;18.988;2023-05-07T04:33:54;10.80;1.00
20349;DHT22;10332;50.208;18.988;2023-05-07T04:36:21;10.80;1.00
20349;DHT22;10332;50.208;18.988;2023-05-07T04:38:49;10.70;1.00
20349;DHT22;10332;50.208;18.988;2023-05-07T04:41:16;10.80;1.00
20349;DHT22;10332;50.208;18.988;2023-05-07T04:43:44;10.70;1.00
20349;DHT22;10332;50.208;18.988;2023-05-07T04:46:12;10.70;1.00
20349;DHT22;10332;50.208;18.988;2023-05-07T04:48:40;10.70;1.00
20349;DHT22;10332;50.208;18.988;2023-05-07T04:51:07;10.70;1.00
20349;DHT22;10332;50.208;18.988;2023-05-07T04:53:35;10.70;1.00
20349;DHT22;10332;50.208;18.988;2023-05-07T04:56:02;10.80;1.00
20349;DHT22;10332;50.208;18.988;2023-05-07T04:58:30;10.80;1.00
20349;DHT22;10332;50.208;18.988;2023-05-07T05:00:59;10.80;1.00
20349;DHT22;10332;50.208;18.988;2023-05-07T05:03:27;10.80;1.00
20349;DHT22;10332;50.208;18.988;2023-05-07T05:05:55;10.90;1.00
20349;DHT22;10332;50.208;18.988;2023-05-07T05:08:22;10.90;1.00
20349;DHT22;10332;50.208;18.988;2023-05-07T05:10:50;10.90;1.00
20349;DHT22;10332;50.208;18.988;2023-05-07T05:13:17;11.00;1.00
20349;DHT22;10332;50.208;18.988;2023-05-07T05:15:45;11.00;1.00
20349;DHT22;10332;50.208;18.988;2023-05-07T05:18:12;11.00;1.00
20349;DHT22;10332;50.208;18.988;2023-05-07T05:20:40;11.10;1.00
20349;DHT22;10332;50.208;18.988;2023-05-07T05:23:08;11.00;1.00
20349;DHT22;10332;50.208;18.988;2023-05-07T05:25:35;11.00;1.00
20349;DHT22;10332;50.208;18.988;2023-05-07T05:28:02;11.00;1.00
20349;DHT22;10332;50.208;18.988;2023-05-07T05:30:30;10.90;1.00
20349;DHT22;10332;50.208;18.988;2023-05-07T05:32:57;10.90;1.00
20349;DHT22;10332;50.208;18.988;2023-05-07T05:35:25;11.00;1.00
20349;DHT22;10332;50.208;18.988;2023-05-07T05:37:52;11.00;1.00
20349;DHT22;10332;50.208;18.988;2023-05-07T05:40:20;11.00;1.00
20349;DHT22;10332;50.208;18.988;2023-05-07T05:42:47;11.00;1.00
20349;DHT22;10332;50.208;18.988;2023-05-07T05:45:15;11.00;1.00
20349;DHT22;10332;50.208;18.988;2023-05-07T05:47:42;10.90;1.00
20349;DHT22;10332;50.208;18.988;2023-05-07T05:50:10;10.90;1.00
20349;DHT22;10332;50.208;18.988;2023-05-07T05:52:38;11.00;1.00
20349;DHT22;10332;50.208;18.988;2023-05-07T05:55:06;11.00;1.00
20349;DHT22;10332;50.208;18.988;2023-05-07T05:57:33;11.00;1.00
20349;DHT22;10332;50.208;18.988;2023-05-07T06:00:02;11.10;1.00
20349;DHT22;10332;50.208;18.988;2023-05-07T06:02:29;11.00;1.00
20349;DHT22;10332;50.208;18.988;2023-05-07T06:04:57;10.90;1.00
20349;DHT22;10332;50.208;18.988;2023-05-07T06:07:25;10.90;1.00
20349;DHT22;10332;50.208;18.988;2023-05-07T06:09:52;10.80;1.00
20349;DHT22;10332;50.208;18.988;2023-05-07T06:12:21;10.80;1.00
20349;DHT22;10332;50.208;18.988;2023-05-07T06:14:48;10.70;1.00
20349;DHT22;10332;50.208;18.988;2023-05-07T06:17:15;10.70;1.00
20349;DHT22;10332;50.208;18.988;2023-05-07T06:19:47;10.70;1.00
20349;DHT22;10332;50.208;18.988;2023-05-07T06:22:14;10.60;1.00
20349;DHT22;10332;50.208;18.988;2023-05-07T06:24:42;10.60;1.00
20349;DHT22;10332;50.208;18.988;2023-05-07T06:27:09;10.60;1.00
20349;DHT22;10332;50.208;18.988;2023-05-07T06:29:37;10.50;1.00
20349;DHT22;10332;50.208;18.988;2023-05-07T06:32:12;10.50;1.00
20349;DHT22;10332;50.208;18.988;2023-05-07T06:34:40;10.50;1.00
20349;DHT22;10332;50.208;18.988;2023-05-07T06:37:08;10.40;1.00
20349;DHT22;10332;50.208;18.988;2023-05-07T06:39:35;10.40;1.00
20349;DHT22;10332;50.208;18.988;2023-05-07T06:42:03;10.40;1.00
20349;DHT22;10332;50.208;18.988;2023-05-07T06:44:31;10.40;1.00
20349;DHT22;10332;50.208;18.988;2023-05-07T06:46:59;10.50;1.00
20349;DHT22;10332;50.208;18.988;2023-05-07T06:49:26;10.60;1.00
20349;DHT22;10332;50.208;18.988;2023-05-07T06:51:54;10.50;1.00
20349;DHT22;10332;50.208;18.988;2023-05-07T06:54:22;10.60;1.00
20349;DHT22;10332;50.208;18.988;2023-05-07T06:56:50;10.50;1.00
20349;DHT22;10332;50.208;18.988;2023-05-07T06:59:18;10.50;1.00
20349;DHT22;10332;50.208;18.988;2023-05-07T07:01:46;10.40;1.00
20349;DHT22;10332;50.208;18.988;2023-05-07T07:04:14;10.40;1.00
20349;DHT22;10332;50.208;18.988;2023-05-07T07:06:41;10.20;1.00
20349;DHT22;10332;50.208;18.988;2023-05-07T07:09:09;10.40;1.00
20349;DHT22;10332;50.208;18.988;2023-05-07T07:11:36;10.40;1.00
20349;DHT22;10332;50.208;18.988;2023-05-07T07:14:04;10.50;1.00
20349;DHT22;10332;50.208;18.988;2023-05-07T07:16:32;10.50;1.00
20349;DHT22;10332;50.208;18.988;2023-05-07T07:18:59;10.60;99.90
20349;DHT22;10332;50.208;18.988;2023-05-07T07:21:27;10.70;99.90
20349;DHT22;10332;50.208;18.988;2023-05-07T07:23:54;10.70;99.90
20349;DHT22;10332;50.208;18.988;2023-05-07T07:26:22;10.80;99.90
20349;DHT22;10332;50.208;18.988;2023-05-07T07:28:49;10.80;99.90
20349;DHT22;10332;50.208;18.988;2023-05-07T07:31:17;10.80;99.90
20349;DHT22;10332;50.208;18.988;2023-05-07T07:33:44;10.80;99.90
20349;DHT22;10332;50.208;18.988;2023-05-07T07:36:12;10.90;99.90
20349;DHT22;10332;50.208;18.988;2023-05-07T07:38:39;11.00;99.90
20349;DHT22;10332;50.208;18.988;2023-05-07T07:41:10;11.00;99.90
20349;DHT22;10332;50.208;18.988;2023-05-07T07:43:37;11.00;99.90
20349;DHT22;10332;50.208;18.988;2023-05-07T07:46:04;11.10;1.00
20349;DHT22;10332;50.208;18.988;2023-05-07T07:48:32;11.10;1.00
20349;DHT22;10332;50.208;18.988;2023-05-07T07:51:00;11.00;1.00
20349;DHT22;10332;50.208;18.988;2023-05-07T07:53:28;11.00;1.00
20349;DHT22;10332;50.208;18.988;2023-05-07T07:55:55;10.80;1.00
20349;DHT22;10332;50.208;18.988;2023-05-07T07:58:25;10.90;1.00
20349;DHT22;10332;50.208;18.988;2023-05-07T08:00:53;11.10;1.00
20349;DHT22;10332;50.208;18.988;2023-05-07T08:03:23;11.20;99.90
20349;DHT22;10332;50.208;18.988;2023-05-07T08:05:50;11.20;99.90
20349;DHT22;10332;50.208;18.988;2023-05-07T08:08:18;11.30;99.90
20349;DHT22;10332;50.208;18.988;2023-05-07T08:10:45;11.20;99.90
20349;DHT22;10332;50.208;18.988;2023-05-07T08:13:13;11.20;99.90
20349;DHT22;10332;50.208;18.988;2023-05-07T08:15:40;11.20;99.90
20349;DHT22;10332;50.208;18.988;2023-05-07T08:18:08;11.00;99.90
20349;DHT22;10332;50.208;18.988;2023-05-07T08:20:36;11.00;1.00
20349;DHT22;10332;50.208;18.988;2023-05-07T08:23:06;10.90;1.00
20349;DHT22;10332;50.208;18.988;2023-05-07T08:25:36;11.10;1.00
20349;DHT22;10332;50.208;18.988;2023-05-07T08:28:04;11.20;1.00
20349;DHT22;10332;50.208;18.988;2023-05-07T08:30:35;11.30;1.00
20349;DHT22;10332;50.208;18.988;2023-05-07T08:33:03;11.50;1.00
20349;DHT22;10332;50.208;18.988;2023-05-07T08:35:31;11.60;99.90
20349;DHT22;10332;50.208;18.988;2023-05-07T08:37:58;11.70;99.90
20349;DHT22;10332;50.208;18.988;2023-05-07T08:40:26;11.80;1.00
20349;DHT22;10332;50.208;18.988;2023-05-07T08:42:56;11.90;1.00
20349;DHT22;10332;50.208;18.988;2023-05-07T08:45:26;12.10;1.00
20349;DHT22;10332;50.208;18.988;2023-05-07T08:47:59;12.10;1.00
20349;DHT22;10332;50.208;18.988;2023-05-07T08:50:29;12.00;99.90
20349;DHT22;10332;50.208;18.988;2023-05-07T08:52:57;12.00;1.00
20349;DHT22;10332;50.208;18.988;2023-05-07T08:55:24;11.90;1.00
20349;DHT22;10332;50.208;18.988;2023-05-07T08:57:52;11.80;1.00
20349;DHT22;10332;50.208;18.988;2023-05-07T09:00:19;11.80;99.90
20349;DHT22;10332;50.208;18.988;2023-05-07T09:02:47;11.90;1.00
20349;DHT22;10332;50.208;18.988;2023-05-07T09:05:15;12.20;99.90
20349;DHT22;10332;50.208;18.988;2023-05-07T09:07:43;12.40;77.10
20349;DHT22;10332;50.208;18.988;2023-05-07T09:10:10;12.50;99.90
20349;DHT22;10332;50.208;18.988;2023-05-07T09:12:39;12.50;1.00
20349;DHT22;10332;50.208;18.988;2023-05-07T09:15:07;12.80;99.90
20349;DHT22;10332;50.208;18.988;2023-05-07T09:17:36;13.00;1.00
20349;DHT22;10332;50.208;18.988;2023-05-07T09:20:05;12.90;1.00
20349;DHT22;10332;50.208;18.988;2023-05-07T09:22:37;12.80;99.90
20349;DHT22;10332;50.208;18.988;2023-05-07T09:25:08;12.60;1.00
20349;DHT22;10332;50.208;18.988;2023-05-07T09:27:37;12.40;99.90
20349;DHT22;10332;50.208;18.988;2023-05-07T09:30:07;12.20;1.00
20349;DHT22;10332;50.208;18.988;2023-05-07T09:32:36;12.10;1.00
20349;DHT22;10332;50.208;18.988;2023-05-07T09:35:15;11.90;1.00
20349;DHT22;10332;50.208;18.988;2023-05-07T09:37:48;11.90;99.90
20349;DHT22;10332;50.208;18.988;2023-05-07T09:40:21;11.80;1.00
20349;DHT22;10332;50.208;18.988;2023-05-07T09:42:50;11.90;99.90
20349;DHT22;10332;50.208;18.988;2023-05-07T09:45:28;12.00;14.40
20349;DHT22;10332;50.208;18.988;2023-05-07T09:47:57;11.90;99.90
20349;DHT22;10332;50.208;18.988;2023-05-07T09:50:30;11.80;99.90
20349;DHT22;10332;50.208;18.988;2023-05-07T09:53:04;11.80;99.90
20349;DHT22;10332;50.208;18.988;2023-05-07T09:55:32;11.80;99.90
20349;DHT22;10332;50.208;18.988;2023-05-07T09:58:01;11.90;61.50
20349;DHT22;10332;50.208;18.988;2023-05-07T10:00:31;12.00;1.00
20349;DHT22;10332;50.208;18.988;2023-05-07T10:03:01;11.90;1.00
20349;DHT22;10332;50.208;18.988;2023-05-07T10:05:30;11.90;99.90
20349;DHT22;10332;50.208;18.988;2023-05-07T10:08:00;11.80;1.00
20349;DHT22;10332;50.208;18.988;2023-05-07T10:10:32;11.80;1.00
20349;DHT22;10332;50.208;18.988;2023-05-07T10:13:02;11.90;99.90
20349;DHT22;10332;50.208;18.988;2023-05-07T10:15:33;12.00;1.00
20349;DHT22;10332;50.208;18.988;2023-05-07T10:18:03;12.00;99.90
20349;DHT22;10332;50.208;18.988;2023-05-07T10:20:34;12.00;99.90
20349;DHT22;10332;50.208;18.988;2023-05-07T10:23:05;12.00;1.00
20349;DHT22;10332;50.208;18.988;2023-05-07T10:25:32;12.10;1.00
20349;DHT22;10332;50.208;18.988;2023-05-07T10:28:05;12.10;1.00
20349;DHT22;10332;50.208;18.988;2023-05-07T10:33:39;12.10;1.00
20349;DHT22;10332;50.208;18.988;2023-05-07T10:36:07;12.00;1.00
20349;DHT22;10332;50.208;18.988;2023-05-07T10:38:36;12.00;1.00
20349;DHT22;10332;50.208;18.988;2023-05-07T10:41:03;12.00;1.00
20349;DHT22;10332;50.208;18.988;2023-05-07T10:43:43;11.90;31.20
20349;DHT22;10332;50.208;18.988;2023-05-07T10:46:15;11.80;99.90
20349;DHT22;10332;50.208;18.988;2023-05-07T10:51:31;11.80;1.00
20349;DHT22;10332;50.208;18.988;2023-05-07T10:56:40;11.60;1.00
20349;DHT22;10332;50.208;18.988;2023-05-07T10:59:38;11.60;1.00
20349;DHT22;10332;50.208;18.988;2023-05-07T11:02:09;11.60;1.00
20349;DHT22;10332;50.208;18.988;2023-05-07T11:04:38;11.60;99.90
20349;DHT22;10332;50.208;18.988;2023-05-07T11:09:57;11.40;1.00
20349;DHT22;10332;50.208;18.988;2023-05-07T11:15:12;11.60;99.90
20349;DHT22;10332;50.208;18.988;2023-05-07T11:17:53;11.70;99.90
20349;DHT22;10332;50.208;18.988;2023-05-07T11:26:09;11.40;99.90
20349;DHT22;10332;50.208;18.988;2023-05-07T11:28:42;11.40;1.00
20349;DHT22;10332;50.208;18.988;2023-05-07T11:31:11;11.20;1.00
20349;DHT22;10332;50.208;18.988;2023-05-07T11:33:38;11.20;1.00
20349;DHT22;10332;50.208;18.988;2023-05-07T11:36:08;11.10;1.00
20349;DHT22;10332;50.208;18.988;2023-05-07T11:38:36;11.10;1.00
20349;DHT22;10332;50.208;18.988;2023-05-07T11:41:05;11.20;1.00
20349;DHT22;10332;50.208;18.988;2023-05-07T11:43:32;11.20;1.00
20349;DHT22;10332;50.208;18.988;2023-05-07T11:46:10;11.10;1.00
20349;DHT22;10332;50.208;18.988;2023-05-07T11:48:39;11.10;1.00
20349;DHT22;10332;50.208;18.988;2023-05-07T11:51:08;11.10;1.00
20349;DHT22;10332;50.208;18.988;2023-05-07T11:53:40;11.00;99.90
20349;DHT22;10332;50.208;18.988;2023-05-07T11:56:10;11.00;1.00
20349;DHT22;10332;50.208;18.988;2023-05-07T11:58:40;11.00;99.90
20349;DHT22;10332;50.208;18.988;2023-05-07T12:01:10;11.10;1.00
20349;DHT22;10332;50.208;18.988;2023-05-07T12:03:42;11.20;91.50
20349;DHT22;10332;50.208;18.988;2023-05-07T12:06:15;11.30;1.00
20349;DHT22;10332;50.208;18.988;2023-05-07T12:08:44;11.20;41.90
20349;DHT22;10332;50.208;18.988;2023-05-07T12:11:22;11.00;1.00
20349;DHT22;10332;50.208;18.988;2023-05-07T12:13:51;10.80;99.90
20349;DHT22;10332;50.208;18.988;2023-05-07T12:16:19;10.80;1.00
20349;DHT22;10332;50.208;18.988;2023-05-07T12:18:47;10.80;1.00
20349;DHT22;10332;50.208;18.988;2023-05-07T12:21:15;10.70;1.00
20349;DHT22;10332;50.208;18.988;2023-05-07T12:23:44;10.80;1.00
20349;DHT22;10332;50.208;18.988;2023-05-07T12:26:12;10.80;1.00
20349;DHT22;10332;50.208;18.988;2023-05-07T12:28:39;10.80;3.50
20349;DHT22;10332;50.208;18.988;2023-05-07T12:31:07;10.80;99.90
20349;DHT22;10332;50.208;18.988;2023-05-07T12:33:36;10.80;20.80
20349;DHT22;10332;50.208;18.988;2023-05-07T12:36:06;10.90;1.00
20349;DHT22;10332;50.208;18.988;2023-05-07T12:38:39;11.00;1.00
20349;DHT22;10332;50.208;18.988;2023-05-07T12:41:10;10.90;1.00
20349;DHT22;10332;50.208;18.988;2023-05-07T12:43:39;10.80;1.00
20349;DHT22;10332;50.208;18.988;2023-05-07T12:46:07;10.80;1.00
20349;DHT22;10332;50.208;18.988;2023-05-07T12:48:43;10.80;1.00
20349;DHT22;10332;50.208;18.988;2023-05-07T12:51:12;10.90;1.00
20349;DHT22;10332;50.208;18.988;2023-05-07T12:53:42;10.90;1.00
20349;DHT22;10332;50.208;18.988;2023-05-07T12:56:10;10.90;1.00
20349;DHT22;10332;50.208;18.988;2023-05-07T12:58:37;11.10;1.00
20349;DHT22;10332;50.208;18.988;2023-05-07T13:01:06;11.20;1.00
20349;DHT22;10332;50.208;18.988;2023-05-07T13:03:37;11.40;1.00
20349;DHT22;10332;50.208;18.988;2023-05-07T13:06:07;11.50;99.90
20349;DHT22;10332;50.208;18.988;2023-05-07T13:08:39;11.40;1.00
20349;DHT22;10332;50.208;18.988;2023-05-07T13:11:11;11.30;1.00
20349;DHT22;10332;50.208;18.988;2023-05-07T13:13:40;11.20;1.00
20349;DHT22;10332;50.208;18.988;2023-05-07T13:16:10;11.10;99.90
20349;DHT22;10332;50.208;18.988;2023-05-07T13:18:39;11.10;99.90
20349;DHT22;10332;50.208;18.988;2023-05-07T13:21:08;11.00;1.00
20349;DHT22;10332;50.208;18.988;2023-05-07T13:23:37;10.90;1.00
20349;DHT22;10332;50.208;18.988;2023-05-07T13:26:05;10.90;1.00
20349;DHT22;10332;50.208;18.988;2023-05-07T13:28:53;10.90;21.60
20349;DHT22;10332;50.208;18.988;2023-05-07T13:31:21;10.90;99.90
20349;DHT22;10332;50.208;18.988;2023-05-07T13:33:49;10.70;99.90
20349;DHT22;10332;50.208;18.988;2023-05-07T13:36:17;10.60;99.90
20349;DHT22;10332;50.208;18.988;2023-05-07T13:38:44;10.50;1.00
20349;DHT22;10332;50.208;18.988;2023-05-07T13:41:12;10.60;1.00
20349;DHT22;10332;50.208;18.988;2023-05-07T13:43:40;10.80;1.00
20349;DHT22;10332;50.208;18.988;2023-05-07T13:46:07;10.80;1.00
20349;DHT22;10332;50.208;18.988;2023-05-07T13:48:35;10.90;1.00
20349;DHT22;10332;50.208;18.988;2023-05-07T13:51:03;10.90;1.00
20349;DHT22;10332;50.208;18.988;2023-05-07T13:53:30;11.00;99.90
20349;DHT22;10332;50.208;18.988;2023-05-07T13:55:57;11.10;99.90
20349;DHT22;10332;50.208;18.988;2023-05-07T13:58:25;11.10;1.00
20349;DHT22;10332;50.208;18.988;2023-05-07T14:00:52;10.90;31.80
20349;DHT22;10332;50.208;18.988;2023-05-07T14:03:20;10.70;1.00
20349;DHT22;10332;50.208;18.988;2023-05-07T14:05:47;10.70;1.00
20349;DHT22;10332;50.208;18.988;2023-05-07T14:08:16;10.60;99.90
20349;DHT22;10332;50.208;18.988;2023-05-07T14:10:46;10.60;1.00
20349;DHT22;10332;50.208;18.988;2023-05-07T14:13:14;10.60;99.90
20349;DHT22;10332;50.208;18.988;2023-05-07T14:15:42;10.60;1.00
20349;DHT22;10332;50.208;18.988;2023-05-07T14:18:13;10.50;99.90
20349;DHT22;10332;50.208;18.988;2023-05-07T14:20:40;10.30;99.90
20349;DHT22;10332;50.208;18.988;2023-05-07T14:23:10;10.20;1.00
20349;DHT22;10332;50.208;18.988;2023-05-07T14:25:37;10.00;1.00
20349;DHT22;10332;50.208;18.988;2023-05-07T14:28:05;9.90;1.00
20349;DHT22;10332;50.208;18.988;2023-05-07T14:30:34;9.80;1.00
20349;DHT22;10332;50.208;18.988;2023-05-07T14:33:02;9.70;1.00
20349;DHT22;10332;50.208;18.988;2023-05-07T14:35:30;9.60;1.00
20349;DHT22;10332;50.208;18.988;2023-05-07T14:37:57;9.60;1.00
20349;DHT22;10332;50.208;18.988;2023-05-07T14:40:25;9.70;1.00
20349;DHT22;10332;50.208;18.988;2023-05-07T14:42:52;9.70;1.00
20349;DHT22;10332;50.208;18.988;2023-05-07T14:45:21;9.80;1.00
20349;DHT22;10332;50.208;18.988;2023-05-07T14:47:48;9.80;1.00
20349;DHT22;10332;50.208;18.988;2023-05-07T14:50:16;9.80;1.00
20349;DHT22;10332;50.208;18.988;2023-05-07T14:52:43;9.80;1.00
20349;DHT22;10332;50.208;18.988;2023-05-07T14:55:12;10.00;99.90
20349;DHT22;10332;50.208;18.988;2023-05-07T14:57:40;10.10;99.90
20349;DHT22;10332;50.208;18.988;2023-05-07T15:00:08;10.30;73.10
20349;DHT22;10332;50.208;18.988;2023-05-07T15:02:36;10.40;1.00
20349;DHT22;10332;50.208;18.988;2023-05-07T15:05:05;10.50;99.90
20349;DHT22;10332;50.208;18.988;2023-05-07T15:07:33;10.60;99.90
20349;DHT22;10332;50.208;18.988;2023-05-07T15:10:01;10.60;99.90
20349;DHT22;10332;50.208;18.988;2023-05-07T15:12:28;10.70;1.00
20349;DHT22;10332;50.208;18.988;2023-05-07T15:14:56;10.60;40.60
20349;DHT22;10332;50.208;18.988;2023-05-07T15:17:23;10.70;99.90
20349;DHT22;10332;50.208;18.988;2023-05-07T15:19:51;10.60;1.00
20349;DHT22;10332;50.208;18.988;2023-05-07T15:22:20;10.40;1.00
20349;DHT22;10332;50.208;18.988;2023-05-07T15:24:48;10.20;1.00
20349;DHT22;10332;50.208;18.988;2023-05-07T15:27:16;10.10;1.00
20349;DHT22;10332;50.208;18.988;2023-05-07T15:29:44;10.00;99.90
20349;DHT22;10332;50.208;18.988;2023-05-07T15:32:11;9.90;99.90
20349;DHT22;10332;50.208;18.988;2023-05-07T15:34:39;9.80;99.90
20349;DHT22;10332;50.208;18.988;2023-05-07T15:37:06;9.70;1.00
20349;DHT22;10332;50.208;18.988;2023-05-07T15:39:34;9.70;1.00
20349;DHT22;10332;50.208;18.988;2023-05-07T15:42:01;9.70;1.00
20349;DHT22;10332;50.208;18.988;2023-05-07T15:44:29;9.70;1.00
20349;DHT22;10332;50.208;18.988;2023-05-07T15:47:01;9.70;1.00
20349;DHT22;10332;50.208;18.988;2023-05-07T15:49:29;9.60;1.00
20349;DHT22;10332;50.208;18.988;2023-05-07T15:51:56;9.50;1.00
20349;DHT22;10332;50.208;18.988;2023-05-07T15:54:24;9.40;24.80
20349;DHT22;10332;50.208;18.988;2023-05-07T15:56:52;9.30;99.90